Time;durP1;ratioP1;P1;durP2;ratioP2;P2;SDS_P1;SDS_P2;PMS_P1;PMS_P2;Temp;Humidity;BMP_temperature;BMP_pressure;BME280_temperature;BME280_humidity;BME280_pressure;Samples;Min_cycle;Max_cycle;Signal;HPM_P1;HPM_P2
2024/02/26 00:01:10;;;;;;;36.40;18.52;;;;;;;;;;5053124;23;20519;-62
2024/02/26 00:03:35;;;;;;;33.22;17.27;;;;;;;;;;5055502;28;20100;-61
2024/02/26 01:09:54;;;;;;;25.02;12.65;;;;;;;;;;5074137;28;20043;-65
2024/02/26 01:12:20;;;;;;;20.92;12.63;;;;;;;;;;5074176;28;20472;-65
2024/02/26 01:14:46;;;;;;;21.30;12.30;;;;;;;;;;5074191;28;20469;-65
2024/02/26 01:17:12;;;;;;;23.50;13.27;;;;;;;;;;5073851;28;20056;-65
2024/02/26 01:19:37;;;;;;;22.05;12.23;;;;;;;;;;5072933;28;20032;-66
2024/02/26 01:22:02;;;;;;;19.58;12.32;;;;;;;;;;5074113;28;20384;-67
2024/02/26 01:24:29;;;;;;;25.60;13.75;;;;;;;;;;5074314;28;20436;-67
2024/02/26 01:26:54;;;;;;;23.83;13.73;;;;;;;;;;5074018;28;20032;-65
2024/02/26 01:29:19;;;;;;;26.92;14.18;;;;;;;;;;5073674;28;20442;-65
2024/02/26 01:31:45;;;;;;;26.38;15.25;;;;;;;;;;5073937;28;20030;-68
2024/02/26 01:34:10;;;;;;;18.40;12.13;;;;;;;;;;5073899;28;20024;-68
2024/02/26 01:36:36;;;;;;;21.70;12.80;;;;;;;;;;5073919;28;20060;-68
2024/02/26 01:39:03;;;;;;;19.15;12.27;;;;;;;;;;5072434;28;20074;-68
2024/02/26 01:41:28;;;;;;;22.67;12.15;;;;;;;;;;5073601;28;20068;-68
2024/02/26 01:43:54;;;;;;;17.75;11.07;;;;;;;;;;5073819;28;20028;-68
2024/02/26 01:46:29;;;;;;;19.13;11.98;;;;;;;;;;5083058;22;20049;-68
2024/02/26 01:48:55;;;;;;;20.50;12.18;;;;;;;;;;5073264;28;20032;-67
2024/02/26 01:51:20;;;;;;;20.52;11.60;;;;;;;;;;5074075;28;20033;-74
2024/02/26 01:53:46;;;;;;;21.80;11.70;;;;;;;;;;5073483;28;20425;-70
2024/02/26 01:56:12;;;;;;;18.73;11.05;;;;;;;;;;5073990;28;20420;-68
2024/02/26 01:58:38;;;;;;;17.48;10.27;;;;;;;;;;5073430;28;20021;-69
2024/02/26 02:01:03;;;;;;;14.18;9.57;;;;;;;;;;5073723;28;20043;-69
2024/02/26 02:03:30;;;;;;;16.38;10.00;;;;;;;;;;5073689;28;20108;-69
2024/02/26 02:05:55;;;;;;;17.08;10.45;;;;;;;;;;5073259;28;20421;-69
2024/02/26 02:08:21;;;;;;;17.67;10.43;;;;;;;;;;5073343;28;20060;-68
2024/02/26 02:10:48;;;;;;;16.08;10.25;;;;;;;;;;5073606;28;20402;-68
2024/02/26 02:13:14;;;;;;;18.65;10.40;;;;;;;;;;5073897;28;20032;-68
2024/02/26 02:15:46;;;;;;;17.10;10.50;;;;;;;;;;5073521;28;20023;-68
2024/02/26 02:18:14;;;;;;;18.42;11.35;;;;;;;;;;5084227;22;20051;-68
2024/02/26 02:20:40;;;;;;;19.73;10.60;;;;;;;;;;5071472;28;20104;-68
2024/02/26 02:23:11;;;;;;;19.13;11.23;;;;;;;;;;5073084;28;20041;-68
2024/02/26 02:25:37;;;;;;;16.77;10.63;;;;;;;;;;5072929;28;20472;-67
2024/02/26 02:28:02;;;;;;;18.00;10.60;;;;;;;;;;5102335;22;20044;-67
2024/02/26 02:30:29;;;;;;;19.50;10.57;;;;;;;;;;5071932;22;20438;-67
2024/02/26 02:32:55;;;;;;;21.70;10.63;;;;;;;;;;5052866;28;20049;-67
2024/02/26 02:35:20;;;;;;;17.75;10.95;;;;;;;;;;5053021;28;20430;-67
2024/02/26 02:37:46;;;;;;;16.67;10.27;;;;;;;;;;5053207;28;20432;-67
2024/02/26 02:40:11;;;;;;;16.75;10.25;;;;;;;;;;5051371;28;20032;-62
2024/02/26 02:42:37;;;;;;;18.48;10.13;;;;;;;;;;5051769;28;20508;-62
2024/02/26 02:45:02;;;;;;;17.80;10.90;;;;;;;;;;5052654;28;20061;-61
2024/02/26 02:47:27;;;;;;;18.55;10.80;;;;;;;;;;5051666;28;20033;-62
2024/02/26 02:49:53;;;;;;;16.00;10.20;;;;;;;;;;5052059;28;20106;-61
2024/02/26 02:52:18;;;;;;;16.50;9.95;;;;;;;;;;5052870;28;20494;-61
2024/02/26 02:54:44;;;;;;;19.17;10.00;;;;;;;;;;5052638;28;20460;-61
2024/02/26 02:57:09;;;;;;;17.17;9.82;;;;;;;;;;5051008;28;20090;-61
2024/02/26 02:59:35;;;;;;;15.80;9.93;;;;;;;;;;5053113;28;20025;-62
2024/02/26 03:02:01;;;;;;;16.50;9.75;;;;;;;;;;5054611;28;20116;-63
2024/02/26 03:04:26;;;;;;;15.68;10.00;;;;;;;;;;5056384;28;20064;-63
2024/02/26 03:06:51;;;;;;;15.27;9.75;;;;;;;;;;5056212;28;20022;-62
2024/02/26 03:09:17;;;;;;;13.48;9.48;;;;;;;;;;5038425;28;20029;-62
2024/02/26 03:11:43;;;;;;;12.38;8.75;;;;;;;;;;5056498;28;20094;-63
2024/02/26 03:14:09;;;;;;;10.35;7.90;;;;;;;;;;5056260;28;20388;-63
2024/02/26 03:16:35;;;;;;;13.55;8.25;;;;;;;;;;5056155;28;20028;-64
2024/02/26 03:19:00;;;;;;;14.88;7.82;;;;;;;;;;5054891;28;20032;-64
2024/02/26 03:21:25;;;;;;;11.10;7.85;;;;;;;;;;5054736;28;20124;-62
2024/02/26 03:23:51;;;;;;;11.98;7.22;;;;;;;;;;5056007;28;20029;-62
2024/02/26 03:26:16;;;;;;;9.77;6.88;;;;;;;;;;5053423;28;20037;-61
2024/02/26 03:28:42;;;;;;;9.43;6.35;;;;;;;;;;5054146;28;20025;-62
2024/02/26 03:31:07;;;;;;;11.32;6.53;;;;;;;;;;5055626;28;20041;-61
2024/02/26 03:33:33;;;;;;;10.73;6.72;;;;;;;;;;5055029;28;20021;-62
2024/02/26 03:35:58;;;;;;;11.07;7.43;;;;;;;;;;5056043;28;20387;-62
2024/02/26 03:38:23;;;;;;;8.98;6.90;;;;;;;;;;5055845;28;20031;-62
2024/02/26 03:40:49;;;;;;;10.48;6.88;;;;;;;;;;5055956;28;20040;-68
2024/02/26 03:43:14;;;;;;;9.30;6.78;;;;;;;;;;5054376;28;20025;-68
2024/02/26 03:45:40;;;;;;;10.45;6.53;;;;;;;;;;5055465;28;20042;-68
2024/02/26 03:48:05;;;;;;;9.43;6.95;;;;;;;;;;5056077;28;20029;-68
2024/02/26 03:50:32;;;;;;;9.57;7.18;;;;;;;;;;5055557;28;20119;-68
2024/02/26 03:52:57;;;;;;;15.98;9.07;;;;;;;;;;5053895;28;20025;-68
2024/02/26 03:55:24;;;;;;;11.68;7.78;;;;;;;;;;5055612;28;20029;-68
2024/02/26 03:57:53;;;;;;;12.48;8.50;;;;;;;;;;5054621;28;20108;-68
2024/02/26 04:00:18;;;;;;;15.35;9.27;;;;;;;;;;5055929;28;20447;-69
2024/02/26 04:02:44;;;;;;;20.85;9.68;;;;;;;;;;5055335;28;20029;-66
2024/02/26 04:05:10;;;;;;;18.23;9.82;;;;;;;;;;5055891;28;20119;-67
2024/02/26 04:07:36;;;;;;;18.73;9.80;;;;;;;;;;5053693;28;20052;-67
2024/02/26 04:10:04;;;;;;;12.32;8.30;;;;;;;;;;5054619;28;20421;-68
2024/02/26 04:12:30;;;;;;;14.63;8.40;;;;;;;;;;5053332;28;20484;-68
2024/02/26 04:14:57;;;;;;;14.60;8.43;;;;;;;;;;5055756;28;20025;-68
2024/02/26 04:17:24;;;;;;;11.95;7.45;;;;;;;;;;5055425;28;20465;-68
2024/02/26 04:19:49;;;;;;;11.07;7.55;;;;;;;;;;5053663;28;20029;-68
2024/02/26 04:22:17;;;;;;;12.10;7.97;;;;;;;;;;5055499;28;20031;-68
2024/02/26 04:24:42;;;;;;;13.52;8.30;;;;;;;;;;5055365;28;20033;-65
2024/02/26 04:27:08;;;;;;;11.23;7.43;;;;;;;;;;5054339;28;20029;-65
2024/02/26 04:29:33;;;;;;;9.02;6.70;;;;;;;;;;5053710;28;20036;-65
2024/02/26 04:31:58;;;;;;;10.93;7.80;;;;;;;;;;5054773;28;20076;-68
2024/02/26 04:34:25;;;;;;;11.75;7.47;;;;;;;;;;5054241;28;20028;-67
2024/02/26 04:36:51;;;;;;;12.60;7.90;;;;;;;;;;5054885;28;20386;-70
2024/02/26 04:39:16;;;;;;;11.07;7.00;;;;;;;;;;5078530;23;20139;-64
2024/02/26 04:41:42;;;;;;;13.07;9.50;;;;;;;;;;5074707;28;20102;-65
2024/02/26 04:44:07;;;;;;;14.68;8.57;;;;;;;;;;5057320;28;20025;-66
2024/02/26 04:46:33;;;;;;;10.98;7.70;;;;;;;;;;5074768;28;20028;-65
2024/02/26 04:48:58;;;;;;;15.20;8.65;;;;;;;;;;5084149;22;20057;-65
2024/02/26 04:51:24;;;;;;;12.82;8.18;;;;;;;;;;5054468;28;20033;-65
2024/02/26 04:53:50;;;;;;;9.82;8.00;;;;;;;;;;5053035;28;20117;-66
2024/02/26 04:56:15;;;;;;;12.73;8.40;;;;;;;;;;5054813;28;20029;-65
2024/02/26 04:58:41;;;;;;;12.30;8.73;;;;;;;;;;5053397;28;20040;-65
2024/02/26 05:01:06;;;;;;;12.90;8.82;;;;;;;;;;5052689;28;20033;-64
2024/02/26 05:03:32;;;;;;;15.05;9.90;;;;;;;;;;5053216;28;20457;-62
2024/02/26 05:05:58;;;;;;;18.70;12.70;;;;;;;;;;5052980;28;20087;-62
2024/02/26 05:08:23;;;;;;;12.65;9.57;;;;;;;;;;5051686;28;20025;-69
2024/02/26 05:10:49;;;;;;;11.88;8.05;;;;;;;;;;5051685;28;20098;-69
2024/02/26 05:13:15;;;;;;;12.38;7.65;;;;;;;;;;5052484;28;20044;-69
2024/02/26 05:15:41;;;;;;;10.98;8.00;;;;;;;;;;5051999;28;20032;-69
2024/02/26 05:18:07;;;;;;;23.27;14.75;;;;;;;;;;5051759;28;20017;-69
2024/02/26 05:20:35;;;;;;;24.27;17.80;;;;;;;;;;5051819;28;20033;-70
2024/02/26 05:23:00;;;;;;;41.40;25.30;;;;;;;;;;5051310;28;20044;-69
2024/02/26 05:25:26;;;;;;;40.72;25.83;;;;;;;;;;5051697;28;20025;-69
2024/02/26 05:27:51;;;;;;;33.05;21.55;;;;;;;;;;5035860;28;20033;-69
2024/02/26 05:30:16;;;;;;;32.95;23.13;;;;;;;;;;5052949;28;20025;-69
2024/02/26 05:32:42;;;;;;;30.75;19.92;;;;;;;;;;5053596;28;20032;-69
2024/02/26 05:35:08;;;;;;;26.33;17.02;;;;;;;;;;5053093;28;20044;-69
2024/02/26 05:37:34;;;;;;;18.40;12.10;;;;;;;;;;5054158;28;20036;-71
2024/02/26 05:39:59;;;;;;;20.67;14.52;;;;;;;;;;5068596;22;20140;-72
2024/02/26 05:42:24;;;;;;;21.83;14.40;;;;;;;;;;5052820;28;20052;-72
2024/02/26 05:44:50;;;;;;;29.23;18.45;;;;;;;;;;5054011;28;20108;-72
2024/02/26 05:47:16;;;;;;;37.50;25.27;;;;;;;;;;5053802;28;20452;-72
2024/02/26 05:49:41;;;;;;;41.85;27.17;;;;;;;;;;5054282;28;20439;-72
2024/02/26 05:52:07;;;;;;;34.28;24.50;;;;;;;;;;5052209;28;20060;-72
2024/02/26 05:54:32;;;;;;;31.13;23.20;;;;;;;;;;5054016;28;20033;-72
2024/02/26 05:56:58;;;;;;;36.30;23.80;;;;;;;;;;5053390;28;20036;-73
2024/02/26 05:59:23;;;;;;;32.83;23.13;;;;;;;;;;5053419;28;20120;-73
2024/02/26 06:01:49;;;;;;;38.17;26.30;;;;;;;;;;5053940;28;20079;-72
2024/02/26 06:04:14;;;;;;;30.92;21.83;;;;;;;;;;5035540;28;20036;-72
2024/02/26 06:06:40;;;;;;;26.30;19.55;;;;;;;;;;5053524;28;20079;-72
2024/02/26 06:09:05;;;;;;;21.50;14.27;;;;;;;;;;5053834;28;20017;-72
2024/02/26 06:11:31;;;;;;;13.05;10.02;;;;;;;;;;5052371;28;20021;-72
2024/02/26 06:13:56;;;;;;;25.92;16.95;;;;;;;;;;5053297;28;20430;-72
2024/02/26 06:16:22;;;;;;;32.38;20.60;;;;;;;;;;5053010;28;20036;-72
2024/02/26 06:18:47;;;;;;;27.75;18.52;;;;;;;;;;5053197;28;20067;-72
2024/02/26 06:21:13;;;;;;;26.98;18.00;;;;;;;;;;5054556;28;20039;-71
2024/02/26 06:23:40;;;;;;;23.42;15.35;;;;;;;;;;5051644;28;20040;-72
2024/02/26 06:26:05;;;;;;;18.05;13.50;;;;;;;;;;5052658;28;20599;-71
2024/02/26 06:28:33;;;;;;;18.17;12.65;;;;;;;;;;5034886;28;20104;-71
2024/02/26 06:30:58;;;;;;;13.05;9.65;;;;;;;;;;5052524;28;20013;-71
2024/02/26 06:33:25;;;;;;;10.32;7.82;;;;;;;;;;5052949;28;20409;-71
2024/02/26 06:35:51;;;;;;;9.00;6.95;;;;;;;;;;5055403;28;20120;-71
2024/02/26 06:38:17;;;;;;;10.73;7.50;;;;;;;;;;5055097;28;20103;-71
2024/02/26 06:40:43;;;;;;;10.60;7.80;;;;;;;;;;5053555;28;20442;-71
2024/02/26 06:43:10;;;;;;;17.92;8.90;;;;;;;;;;5054936;28;20484;-71
2024/02/26 06:45:35;;;;;;;13.57;10.93;;;;;;;;;;5054760;28;20029;-71
2024/02/26 06:48:01;;;;;;;17.67;11.43;;;;;;;;;;5054888;28;20039;-71
2024/02/26 06:50:26;;;;;;;24.77;19.73;;;;;;;;;;5054955;28;20024;-71
2024/02/26 06:52:52;;;;;;;16.88;12.00;;;;;;;;;;5054739;28;20471;-71
2024/02/26 06:55:17;;;;;;;20.02;13.18;;;;;;;;;;5056837;28;20033;-71
2024/02/26 06:57:42;;;;;;;20.48;13.02;;;;;;;;;;5073636;22;20088;-69
2024/02/26 07:00:08;;;;;;;46.08;37.00;;;;;;;;;;5056476;28;20033;-69
2024/02/26 07:02:33;;;;;;;31.85;18.98;;;;;;;;;;5055146;28;20029;-68
2024/02/26 07:04:59;;;;;;;26.20;17.00;;;;;;;;;;5055138;28;20525;-69
2024/02/26 07:07:25;;;;;;;19.02;13.52;;;;;;;;;;5073651;22;20061;-69
2024/02/26 07:09:51;;;;;;;14.57;11.23;;;;;;;;;;5086557;22;20087;-71
2024/02/26 07:12:17;;;;;;;16.48;10.35;;;;;;;;;;5076749;28;20174;-71
2024/02/26 07:14:43;;;;;;;12.60;8.43;;;;;;;;;;5076209;28;20449;-71
2024/02/26 07:17:08;;;;;;;12.18;7.88;;;;;;;;;;5058120;28;20108;-71
2024/02/26 07:19:34;;;;;;;11.35;7.13;;;;;;;;;;5076610;28;20032;-71
2024/02/26 07:22:03;;;;;;;15.25;7.40;;;;;;;;;;5058227;28;20028;-71
2024/02/26 07:24:28;;;;;;;12.65;8.07;;;;;;;;;;5076036;28;20028;-71
2024/02/26 07:26:56;;;;;;;12.02;8.25;;;;;;;;;;5075833;28;20074;-71
2024/02/26 07:29:21;;;;;;;14.80;8.90;;;;;;;;;;5076485;28;20025;-71
2024/02/26 07:31:47;;;;;;;12.05;7.63;;;;;;;;;;5041293;28;20525;-71
2024/02/26 07:34:13;;;;;;;8.73;6.68;;;;;;;;;;5076092;28;20028;-69
2024/02/26 07:36:38;;;;;;;9.52;5.75;;;;;;;;;;5075781;28;20029;-69
2024/02/26 07:39:04;;;;;;;7.53;5.65;;;;;;;;;;5075748;28;20029;-69
2024/02/26 07:41:29;;;;;;;8.25;5.40;;;;;;;;;;5058183;28;20028;-69
2024/02/26 07:43:55;;;;;;;7.28;5.53;;;;;;;;;;5075639;28;20392;-69
2024/02/26 07:46:20;;;;;;;7.97;5.43;;;;;;;;;;5040167;28;20077;-69
2024/02/26 07:48:45;;;;;;;5.43;4.55;;;;;;;;;;5075821;28;20032;-69
2024/02/26 07:51:14;;;;;;;4.95;4.50;;;;;;;;;;5075523;28;20483;-69
2024/02/26 07:53:40;;;;;;;7.95;5.45;;;;;;;;;;5075456;28;20046;-69
2024/02/26 07:56:05;;;;;;;5.72;4.80;;;;;;;;;;5076688;28;20036;-69
2024/02/26 07:58:32;;;;;;;5.57;5.07;;;;;;;;;;5058790;28;20032;-69
2024/02/26 08:00:57;;;;;;;8.38;6.13;;;;;;;;;;5075652;28;20036;-68
2024/02/26 08:03:23;;;;;;;8.65;5.82;;;;;;;;;;5075851;28;20082;-68
2024/02/26 08:05:48;;;;;;;11.55;8.48;;;;;;;;;;5073859;28;20404;-69
2024/02/26 08:08:13;;;;;;;8.52;6.47;;;;;;;;;;5057075;28;20029;-69
2024/02/26 08:10:39;;;;;;;10.60;7.20;;;;;;;;;;5057186;28;20034;-69
2024/02/26 08:13:07;;;;;;;26.88;13.57;;;;;;;;;;5075395;28;20093;-69
2024/02/26 08:15:37;;;;;;;17.63;9.98;;;;;;;;;;5075575;28;20388;-69
2024/02/26 08:18:03;;;;;;;16.60;8.40;;;;;;;;;;5075006;28;20415;-69
2024/02/26 08:20:29;;;;;;;11.77;8.60;;;;;;;;;;5057034;28;20066;-69
2024/02/26 08:22:54;;;;;;;7.75;5.60;;;;;;;;;;5075151;28;20062;-69
2024/02/26 08:25:20;;;;;;;11.05;8.40;;;;;;;;;;5075331;28;20036;-69
2024/02/26 08:27:45;;;;;;;9.57;8.18;;;;;;;;;;5056956;28;20507;-69
2024/02/26 08:30:16;;;;;;;13.73;11.10;;;;;;;;;;5075057;28;20070;-71
2024/02/26 08:32:42;;;;;;;21.77;18.63;;;;;;;;;;5097846;22;20198;-68
2024/02/26 08:35:07;;;;;;;14.82;12.25;;;;;;;;;;5074695;28;20028;-69
2024/02/26 08:37:33;;;;;;;17.40;12.23;;;;;;;;;;5073312;28;20029;-69
2024/02/26 08:39:58;;;;;;;26.63;20.67;;;;;;;;;;5056653;28;20024;-69
2024/02/26 08:42:24;;;;;;;64.60;48.65;;;;;;;;;;5074464;28;20055;-69
2024/02/26 08:44:49;;;;;;;29.10;23.17;;;;;;;;;;5074932;28;20033;-69
2024/02/26 08:47:16;;;;;;;26.45;19.33;;;;;;;;;;5073243;28;20576;-68
2024/02/26 08:49:45;;;;;;;14.45;10.13;;;;;;;;;;5074616;28;20115;-68
2024/02/26 08:52:11;;;;;;;8.25;7.43;;;;;;;;;;5074611;28;20035;-68
2024/02/26 08:54:36;;;;;;;27.58;15.73;;;;;;;;;;5074583;28;20100;-68
2024/02/26 08:57:02;;;;;;;22.40;14.18;;;;;;;;;;5074210;28;20036;-68
2024/02/26 08:59:28;;;;;;;17.55;13.13;;;;;;;;;;5074498;28;20075;-68
2024/02/26 09:01:53;;;;;;;10.88;8.35;;;;;;;;;;5072968;28;20480;-68
2024/02/26 09:04:19;;;;;;;7.18;5.70;;;;;;;;;;5072829;28;20074;-68
2024/02/26 09:06:44;;;;;;;7.70;6.32;;;;;;;;;;5074043;28;20508;-68
2024/02/26 09:09:10;;;;;;;8.55;6.57;;;;;;;;;;5074291;28;20468;-68
2024/02/26 09:11:36;;;;;;;7.45;5.43;;;;;;;;;;5072733;28;20024;-68
2024/02/26 09:14:03;;;;;;;5.45;4.22;;;;;;;;;;5072674;28;20036;-68
2024/02/26 09:16:57;;;;;;;12.57;6.88;;;;;;;;;;5110746;22;20044;-73
2024/02/26 09:19:23;;;;;;;7.03;5.00;;;;;;;;;;5034497;28;20094;-71
2024/02/26 09:21:48;;;;;;;5.07;4.45;;;;;;;;;;5053821;28;20033;-71
2024/02/26 09:24:14;;;;;;;5.78;4.13;;;;;;;;;;5069543;28;20074;-71
2024/02/26 09:26:55;;;;;;;4.25;3.75;;;;;;;;;;5105802;22;20543;-68
2024/02/26 09:29:21;;;;;;;4.53;3.38;;;;;;;;;;5082694;22;20519;-71
2024/02/26 09:31:47;;;;;;;4.95;4.35;;;;;;;;;;5073661;28;20067;-71
2024/02/26 09:34:13;;;;;;;4.22;3.83;;;;;;;;;;5074001;28;20059;-71
2024/02/26 09:36:39;;;;;;;4.45;3.97;;;;;;;;;;5072499;28;20113;-71
2024/02/26 09:39:11;;;;;;;4.57;3.97;;;;;;;;;;5073571;28;20393;-71
2024/02/26 09:41:37;;;;;;;5.82;5.22;;;;;;;;;;5073952;28;20456;-71
2024/02/26 09:44:02;;;;;;;5.05;3.90;;;;;;;;;;5072387;28;20112;-71
2024/02/26 09:46:28;;;;;;;5.35;4.85;;;;;;;;;;5073751;28;20024;-71
2024/02/26 09:48:53;;;;;;;5.47;4.38;;;;;;;;;;5074093;28;20029;-71
2024/02/26 09:51:19;;;;;;;3.85;3.50;;;;;;;;;;5073812;28;20033;-71
2024/02/26 09:53:46;;;;;;;3.97;3.58;;;;;;;;;;5073826;28;20070;-71
2024/02/26 09:56:15;;;;;;;3.42;3.13;;;;;;;;;;5073726;28;20070;-71
2024/02/26 09:58:41;;;;;;;19.42;13.48;;;;;;;;;;5073460;28;20120;-71
2024/02/26 10:01:11;;;;;;;4.57;3.90;;;;;;;;;;5072404;28;20529;-71
2024/02/26 10:03:44;;;;;;;3.60;3.30;;;;;;;;;;5073411;28;20032;-71
2024/02/26 10:06:10;;;;;;;4.18;3.78;;;;;;;;;;5073364;28;20036;-71
2024/02/26 10:08:36;;;;;;;6.05;4.97;;;;;;;;;;5072805;28;20035;-71
2024/02/26 10:11:02;;;;;;;6.05;5.43;;;;;;;;;;5076282;28;20024;-71
2024/02/26 10:13:29;;;;;;;9.07;7.88;;;;;;;;;;5077370;28;20383;-71
2024/02/26 10:15:54;;;;;;;16.58;11.65;;;;;;;;;;5077667;28;20043;-71
2024/02/26 10:18:20;;;;;;;9.18;8.10;;;;;;;;;;5076433;28;20107;-69
2024/02/26 10:20:58;;;;;;;5.07;3.55;;;;;;;;;;5077573;28;20468;-69
2024/02/26 10:23:25;;;;;;;7.35;5.90;;;;;;;;;;5075960;28;20029;-69
2024/02/26 10:25:54;;;;;;;9.80;6.90;;;;;;;;;;5077346;28;20040;-69
2024/02/26 10:28:20;;;;;;;4.47;4.03;;;;;;;;;;5081092;28;20037;-69
2024/02/26 10:30:46;;;;;;;4.95;3.42;;;;;;;;;;5097620;28;20032;-69
2024/02/26 10:33:14;;;;;;;5.03;3.50;;;;;;;;;;5097531;28;20044;-69
2024/02/26 10:35:40;;;;;;;3.40;3.10;;;;;;;;;;5079170;28;20081;-69
2024/02/26 10:38:09;;;;;;;3.03;2.83;;;;;;;;;;5097163;28;20032;-69
2024/02/26 10:40:34;;;;;;;2.72;2.30;;;;;;;;;;5096259;28;20425;-69
2024/02/26 10:43:00;;;;;;;3.60;3.30;;;;;;;;;;5097072;28;20028;-69
2024/02/26 10:45:26;;;;;;;2.90;2.53;;;;;;;;;;5097261;28;20063;-69
2024/02/26 10:47:51;;;;;;;2.42;2.22;;;;;;;;;;5095760;28;20459;-69
2024/02/26 10:50:18;;;;;;;1.95;1.85;;;;;;;;;;5097258;28;20067;-69
2024/02/26 10:52:43;;;;;;;2.90;2.70;;;;;;;;;;5096896;28;20028;-69
2024/02/26 10:55:13;;;;;;;1.88;1.77;;;;;;;;;;5079285;28;20039;-69
2024/02/26 10:57:40;;;;;;;6.10;5.60;;;;;;;;;;5078625;28;20456;-69
2024/02/26 11:00:06;;;;;;;2.85;2.65;;;;;;;;;;5096737;28;20050;-69
2024/02/26 11:02:33;;;;;;;2.53;2.33;;;;;;;;;;5096965;28;20522;-69
2024/02/26 11:04:59;;;;;;;1.58;1.48;;;;;;;;;;5096846;28;20031;-69
2024/02/26 11:07:26;;;;;;;1.50;1.40;;;;;;;;;;5096908;28;20024;-69
2024/02/26 11:09:52;;;;;;;1.25;1.13;;;;;;;;;;5097117;28;20456;-69
2024/02/26 11:12:18;;;;;;;1.30;1.23;;;;;;;;;;5096476;28;20115;-69
2024/02/26 11:14:46;;;;;;;1.20;1.10;;;;;;;;;;5078496;28;20056;-71
2024/02/26 11:17:12;;;;;;;1.42;1.33;;;;;;;;;;5078839;28;20031;-71
2024/02/26 11:19:38;;;;;;;1.38;1.27;;;;;;;;;;5096381;28;20028;-71
2024/02/26 11:22:03;;;;;;;1.92;1.23;;;;;;;;;;5077085;28;20031;-71
2024/02/26 11:24:29;;;;;;;2.13;1.88;;;;;;;;;;5096601;28;20028;-71
2024/02/26 11:27:01;;;;;;;4.72;3.80;;;;;;;;;;5078425;28;20110;-71
2024/02/26 11:29:28;;;;;;;2.83;2.63;;;;;;;;;;5096234;28;20044;-71
2024/02/26 11:31:53;;;;;;;3.50;3.20;;;;;;;;;;5078047;28;20368;-71
2024/02/26 11:34:19;;;;;;;3.08;2.53;;;;;;;;;;5090332;22;20056;-70
2024/02/26 11:36:45;;;;;;;3.53;3.22;;;;;;;;;;5096440;28;20035;-71
2024/02/26 11:39:16;;;;;;;3.03;2.78;;;;;;;;;;5096123;28;20410;-71
2024/02/26 11:41:42;;;;;;;4.60;3.55;;;;;;;;;;5080177;28;20035;-71
2024/02/26 11:44:14;;;;;;;3.75;3.10;;;;;;;;;;5097339;22;20066;-69
2024/02/26 11:46:42;;;;;;;4.60;2.83;;;;;;;;;;5089339;22;20067;-68
2024/02/26 11:49:28;;;;;;;3.38;3.08;;;;;;;;;;5067067;23;20055;-68
2024/02/26 11:51:54;;;;;;;8.50;5.50;;;;;;;;;;5057581;28;20483;-69
2024/02/26 11:54:39;;;;;;;3.67;3.38;;;;;;;;;;5075501;28;20016;-69
2024/02/26 11:57:19;;;;;;;3.08;2.78;;;;;;;;;;5075462;28;20071;-69
2024/02/26 11:59:45;;;;;;;3.90;3.60;;;;;;;;;;5075741;28;20029;-69
2024/02/26 12:02:12;;;;;;;12.23;5.43;;;;;;;;;;5075625;28;20051;-69
2024/02/26 12:04:38;;;;;;;6.53;5.93;;;;;;;;;;5075371;28;20028;-69
2024/02/26 12:07:05;;;;;;;7.05;5.32;;;;;;;;;;5075750;28;20031;-69
2024/02/26 12:09:34;;;;;;;9.77;6.28;;;;;;;;;;5075124;28;20039;-69
2024/02/26 12:12:01;;;;;;;13.90;7.88;;;;;;;;;;5073962;28;20422;-69
2024/02/26 12:14:27;;;;;;;11.05;8.02;;;;;;;;;;5075384;28;20441;-69
2024/02/26 12:16:52;;;;;;;9.40;6.38;;;;;;;;;;5073780;28;20123;-69
2024/02/26 12:19:18;;;;;;;6.55;4.00;;;;;;;;;;5075047;28;20031;-69
2024/02/26 12:21:44;;;;;;;5.95;5.45;;;;;;;;;;5073655;28;20388;-69
2024/02/26 12:24:11;;;;;;;5.78;3.50;;;;;;;;;;5073594;28;20059;-69
2024/02/26 12:26:37;;;;;;;4.40;3.60;;;;;;;;;;5075084;28;20031;-69
2024/02/26 12:29:02;;;;;;;4.13;3.30;;;;;;;;;;5073594;28;20008;-69
2024/02/26 12:31:28;;;;;;;7.07;4.32;;;;;;;;;;5075055;28;20039;-69
2024/02/26 12:33:54;;;;;;;7.20;4.00;;;;;;;;;;5073144;28;20028;-69
2024/02/26 12:36:20;;;;;;;5.80;4.75;;;;;;;;;;5073762;28;20059;-69
2024/02/26 12:38:46;;;;;;;6.35;4.93;;;;;;;;;;5074586;28;20032;-69
2024/02/26 12:41:11;;;;;;;5.63;4.38;;;;;;;;;;5074512;28;20040;-69
2024/02/26 12:43:37;;;;;;;5.38;4.72;;;;;;;;;;5074780;28;20031;-69
2024/02/26 12:46:03;;;;;;;5.57;4.35;;;;;;;;;;5074386;28;20043;-69
2024/02/26 12:48:29;;;;;;;6.32;4.53;;;;;;;;;;5072928;28;20047;-69
2024/02/26 12:50:56;;;;;;;6.15;5.07;;;;;;;;;;5073101;28;20024;-69
2024/02/26 12:53:21;;;;;;;9.30;6.88;;;;;;;;;;5074638;28;20029;-69
2024/02/26 12:55:47;;;;;;;16.48;12.05;;;;;;;;;;5074545;28;20024;-69
2024/02/26 12:58:13;;;;;;;11.52;8.20;;;;;;;;;;5074257;28;20464;-69
2024/02/26 13:00:38;;;;;;;9.75;8.75;;;;;;;;;;5073008;28;20047;-69
2024/02/26 13:03:04;;;;;;;31.13;24.23;;;;;;;;;;5072877;28;20092;-69
2024/02/26 13:05:30;;;;;;;45.90;31.33;;;;;;;;;;5074356;28;20090;-69
2024/02/26 13:07:55;;;;;;;52.28;38.10;;;;;;;;;;5074087;28;20021;-69
2024/02/26 13:10:21;;;;;;;12.23;9.90;;;;;;;;;;5073446;28;20418;-69
2024/02/26 13:12:47;;;;;;;97.32;60.20;;;;;;;;;;5074243;28;20029;-69
2024/02/26 13:15:16;;;;;;;104.80;49.63;;;;;;;;;;5073016;28;20372;-69
2024/02/26 13:17:42;;;;;;;154.05;89.57;;;;;;;;;;5072653;28;20502;-69
2024/02/26 13:20:09;;;;;;;56.47;34.35;;;;;;;;;;5074168;28;20017;-69
2024/02/26 13:22:35;;;;;;;9.98;8.68;;;;;;;;;;5074090;28;20074;-69
2024/02/26 13:25:02;;;;;;;14.13;7.40;;;;;;;;;;5074022;28;20066;-69
2024/02/26 13:27:28;;;;;;;7.85;5.90;;;;;;;;;;5073805;28;20104;-69
2024/02/26 13:30:10;;;;;;;8.88;5.55;;;;;;;;;;5073960;28;20020;-69
2024/02/26 13:32:36;;;;;;;7.45;5.90;;;;;;;;;;5074230;28;20103;-69
2024/02/26 13:35:06;;;;;;;5.82;5.10;;;;;;;;;;5055788;28;20107;-69
2024/02/26 13:37:31;;;;;;;7.68;6.78;;;;;;;;;;5073946;28;20145;-69
2024/02/26 13:39:57;;;;;;;6.18;4.80;;;;;;;;;;5055722;28;20044;-69
2024/02/26 13:42:22;;;;;;;5.00;4.15;;;;;;;;;;5073937;28;20021;-69
2024/02/26 13:44:47;;;;;;;4.18;3.85;;;;;;;;;;5071590;28;20012;-69
2024/02/26 13:47:14;;;;;;;5.00;4.55;;;;;;;;;;5072718;28;20028;-69
2024/02/26 13:49:39;;;;;;;6.43;4.13;;;;;;;;;;5074562;28;20463;-69
2024/02/26 13:52:05;;;;;;;6.93;4.70;;;;;;;;;;5073265;28;20062;-69
2024/02/26 13:54:30;;;;;;;5.18;4.15;;;;;;;;;;5082382;22;20014;-71
2024/02/26 13:56:56;;;;;;;15.32;12.88;;;;;;;;;;5072896;28;20094;-72
2024/02/26 13:59:21;;;;;;;24.40;18.42;;;;;;;;;;5072785;28;20063;-72
2024/02/26 14:01:47;;;;;;;23.20;17.98;;;;;;;;;;5070203;28;20491;-72
2024/02/26 14:04:12;;;;;;;8.95;6.43;;;;;;;;;;5071570;28;20029;-72
2024/02/26 14:06:38;;;;;;;5.22;4.72;;;;;;;;;;5071726;28;20024;-69
2024/02/26 14:09:04;;;;;;;5.32;3.90;;;;;;;;;;5071537;28;20525;-69
2024/02/26 14:11:29;;;;;;;8.88;7.78;;;;;;;;;;5071445;28;20021;-69
2024/02/26 14:13:55;;;;;;;9.02;5.90;;;;;;;;;;5071255;28;20499;-69
2024/02/26 14:16:20;;;;;;;31.58;16.63;;;;;;;;;;5073582;28;20040;-69
2024/02/26 14:18:46;;;;;;;16.65;9.13;;;;;;;;;;5071797;28;20037;-69
2024/02/26 14:21:12;;;;;;;8.88;5.50;;;;;;;;;;5072280;28;20468;-69
2024/02/26 14:23:38;;;;;;;33.08;17.65;;;;;;;;;;5073173;28;20027;-69
2024/02/26 14:26:04;;;;;;;20.60;10.20;;;;;;;;;;5072605;28;20032;-70
2024/02/26 14:28:29;;;;;;;17.58;8.98;;;;;;;;;;5071857;28;20020;-70
2024/02/26 14:30:56;;;;;;;29.38;16.45;;;;;;;;;;5063651;28;20136;-70
2024/02/26 14:33:22;;;;;;;9.32;7.07;;;;;;;;;;5070822;28;20041;-69
2024/02/26 14:35:47;;;;;;;109.88;59.53;;;;;;;;;;5070773;28;20052;-69
2024/02/26 14:38:13;;;;;;;21.50;13.27;;;;;;;;;;5069596;28;20036;-69
2024/02/26 14:40:38;;;;;;;28.00;16.02;;;;;;;;;;5069582;28;20048;-69
2024/02/26 14:43:04;;;;;;;13.15;7.88;;;;;;;;;;5069721;28;20765;-69
2024/02/26 14:45:30;;;;;;;40.40;29.95;;;;;;;;;;5070053;28;20086;-69
2024/02/26 14:47:56;;;;;;;36.58;31.38;;;;;;;;;;5069479;28;20034;-70
2024/02/26 14:50:22;;;;;;;25.05;12.68;;;;;;;;;;5068861;28;20119;-70
2024/02/26 14:52:47;;;;;;;43.33;27.25;;;;;;;;;;5070582;28;20070;-70
2024/02/26 14:55:13;;;;;;;23.10;14.20;;;;;;;;;;5070277;28;20033;-70
2024/02/26 14:57:38;;;;;;;39.80;32.92;;;;;;;;;;5071770;28;20035;-70
2024/02/26 15:00:05;;;;;;;7.63;6.57;;;;;;;;;;5071378;28;20059;-70
2024/02/26 15:02:31;;;;;;;7.88;6.18;;;;;;;;;;5071220;28;20039;-70
2024/02/26 15:04:56;;;;;;;10.13;7.25;;;;;;;;;;5072908;28;20091;-69
2024/02/26 15:07:22;;;;;;;11.75;8.02;;;;;;;;;;5070584;28;20040;-69
2024/02/26 15:09:47;;;;;;;15.18;9.60;;;;;;;;;;5072311;28;20033;-70
2024/02/26 15:12:13;;;;;;;8.07;6.55;;;;;;;;;;5073501;28;20025;-70
2024/02/26 15:14:38;;;;;;;10.98;8.50;;;;;;;;;;5072538;28;20040;-70
2024/02/26 15:17:04;;;;;;;12.75;9.40;;;;;;;;;;5072476;28;20041;-70
2024/02/26 15:19:29;;;;;;;8.02;6.43;;;;;;;;;;5073110;28;20040;-70
2024/02/26 15:21:55;;;;;;;12.50;8.40;;;;;;;;;;5072925;28;20094;-70
2024/02/26 15:24:20;;;;;;;21.35;11.38;;;;;;;;;;5072266;28;20024;-70
2024/02/26 15:26:46;;;;;;;22.40;12.32;;;;;;;;;;5073542;28;20032;-70
2024/02/26 15:29:12;;;;;;;12.52;8.27;;;;;;;;;;5073263;28;20024;-70